sensor_id;sensor_type;location;lat;lon;timestamp;temperature;humidity
4411;DHT22;2218;51.408;7.208;2022-09-14T00:00:53;22.80;54.40
4411;DHT22;2218;51.408;7.208;2022-09-14T00:03:20;22.80;54.40
4411;DHT22;2218;51.408;7.208;2022-09-14T00:05:49;22.80;54.40
4411;DHT22;2218;51.408;7.208;2022-09-14T00:08:16;22.80;54.40
4411;DHT22;2218;51.408;7.208;2022-09-14T00:10:44;22.80;54.40
4411;DHT22;2218;51.408;7.208;2022-09-14T00:13:13;22.80;54.40
4411;DHT22;2218;51.408;7.208;2022-09-14T00:15:41;22.80;54.40
4411;DHT22;2218;51.408;7.208;2022-09-14T00:18:10;22.80;54.40
4411;DHT22;2218;51.408;7.208;2022-09-14T00:20:37;22.80;54.40
4411;DHT22;2218;51.408;7.208;2022-09-14T00:23:06;22.80;54.40
4411;DHT22;2218;51.408;7.208;2022-09-14T00:25:32;22.70;54.30
4411;DHT22;2218;51.408;7.208;2022-09-14T00:27:59;22.70;54.30
4411;DHT22;2218;51.408;7.208;2022-09-14T00:30:26;22.70;54.30
4411;DHT22;2218;51.408;7.208;2022-09-14T00:32:53;22.80;54.40
4411;DHT22;2218;51.408;7.208;2022-09-14T00:35:20;22.80;54.40
4411;DHT22;2218;51.408;7.208;2022-09-14T00:37:48;22.80;54.40
4411;DHT22;2218;51.408;7.208;2022-09-14T00:40:18;22.70;54.30
4411;DHT22;2218;51.408;7.208;2022-09-14T00:42:45;22.70;54.30
4411;DHT22;2218;51.408;7.208;2022-09-14T00:45:15;22.70;54.30
4411;DHT22;2218;51.408;7.208;2022-09-14T00:47:46;22.70;54.30
4411;DHT22;2218;51.408;7.208;2022-09-14T00:50:16;22.70;54.30
4411;DHT22;2218;51.408;7.208;2022-09-14T00:52:46;22.70;54.30
4411;DHT22;2218;51.408;7.208;2022-09-14T00:55:19;22.70;54.30
4411;DHT22;2218;51.408;7.208;2022-09-14T00:57:49;22.70;54.30
4411;DHT22;2218;51.408;7.208;2022-09-14T01:00:22;22.70;54.30
4411;DHT22;2218;51.408;7.208;2022-09-14T01:02:52;22.70;54.30
4411;DHT22;2218;51.408;7.208;2022-09-14T01:05:24;22.70;54.30
4411;DHT22;2218;51.408;7.208;2022-09-14T01:08:15;22.70;54.30
4411;DHT22;2218;51.408;7.208;2022-09-14T01:11:10;22.70;54.30
4411;DHT22;2218;51.408;7.208;2022-09-14T01:13:55;22.70;54.30
4411;DHT22;2218;51.408;7.208;2022-09-14T01:16:32;22.70;54.30
4411;DHT22;2218;51.408;7.208;2022-09-14T01:19:14;22.70;54.30
4411;DHT22;2218;51.408;7.208;2022-09-14T01:21:49;22.70;54.30
4411;DHT22;2218;51.408;7.208;2022-09-14T01:24:25;22.70;54.30
4411;DHT22;2218;51.408;7.208;2022-09-14T01:27:21;22.70;54.30
4411;DHT22;2218;51.408;7.208;2022-09-14T01:30:00;22.70;54.30
4411;DHT22;2218;51.408;7.208;2022-09-14T01:32:35;22.70;54.30
4411;DHT22;2218;51.408;7.208;2022-09-14T01:35:12;22.70;54.30
4411;DHT22;2218;51.408;7.208;2022-09-14T01:37:46;22.70;54.30
4411;DHT22;2218;51.408;7.208;2022-09-14T01:40:19;22.60;54.20
4411;DHT22;2218;51.408;7.208;2022-09-14T01:42:56;22.70;54.20
4411;DHT22;2218;51.408;7.208;2022-09-14T01:45:27;22.70;54.20
4411;DHT22;2218;51.408;7.208;2022-09-14T01:48:00;22.70;54.20
4411;DHT22;2218;51.408;7.208;2022-09-14T01:50:37;22.70;54.20
4411;DHT22;2218;51.408;7.208;2022-09-14T01:53:09;22.70;54.20
4411;DHT22;2218;51.408;7.208;2022-09-14T01:55:42;22.60;54.20
4411;DHT22;2218;51.408;7.208;2022-09-14T01:58:19;22.60;54.20
4411;DHT22;2218;51.408;7.208;2022-09-14T02:00:52;22.60;54.10
4411;DHT22;2218;51.408;7.208;2022-09-14T02:03:24;22.70;54.20
4411;DHT22;2218;51.408;7.208;2022-09-14T02:05:58;22.70;54.20
4411;DHT22;2218;51.408;7.208;2022-09-14T02:08:33;22.60;54.10
4411;DHT22;2218;51.408;7.208;2022-09-14T02:11:01;22.60;54.10
4411;DHT22;2218;51.408;7.208;2022-09-14T02:13:29;22.60;54.10
4411;DHT22;2218;51.408;7.208;2022-09-14T02:15:56;22.60;54.10
4411;DHT22;2218;51.408;7.208;2022-09-14T02:18:23;22.60;54.10
4411;DHT22;2218;51.408;7.208;2022-09-14T02:20:53;22.60;54.10
4411;DHT22;2218;51.408;7.208;2022-09-14T02:23:23;22.60;54.10
4411;DHT22;2218;51.408;7.208;2022-09-14T02:25:51;22.60;54.20
4411;DHT22;2218;51.408;7.208;2022-09-14T02:28:19;22.60;54.10
4411;DHT22;2218;51.408;7.208;2022-09-14T02:30:57;22.60;54.10
4411;DHT22;2218;51.408;7.208;2022-09-14T02:33:38;22.60;54.10
4411;DHT22;2218;51.408;7.208;2022-09-14T02:36:15;22.60;54.10
4411;DHT22;2218;51.408;7.208;2022-09-14T02:39:02;22.60;54.10
4411;DHT22;2218;51.408;7.208;2022-09-14T02:41:42;22.60;54.10
4411;DHT22;2218;51.408;7.208;2022-09-14T02:44:17;22.60;54.10
4411;DHT22;2218;51.408;7.208;2022-09-14T02:46:58;22.60;54.10
4411;DHT22;2218;51.408;7.208;2022-09-14T02:49:38;22.60;54.10
4411;DHT22;2218;51.408;7.208;2022-09-14T02:52:14;22.60;54.10
4411;DHT22;2218;51.408;7.208;2022-09-14T02:54:49;22.60;54.10
4411;DHT22;2218;51.408;7.208;2022-09-14T02:57:22;22.60;54.10
4411;DHT22;2218;51.408;7.208;2022-09-14T02:59:49;22.60;54.10
4411;DHT22;2218;51.408;7.208;2022-09-14T03:02:19;22.60;54.10
4411;DHT22;2218;51.408;7.208;2022-09-14T03:04:46;22.60;54.10
4411;DHT22;2218;51.408;7.208;2022-09-14T03:07:13;22.60;54.10
4411;DHT22;2218;51.408;7.208;2022-09-14T03:09:40;22.60;54.10
4411;DHT22;2218;51.408;7.208;2022-09-14T03:12:07;22.60;54.10
4411;DHT22;2218;51.408;7.208;2022-09-14T03:14:33;22.50;54.00
4411;DHT22;2218;51.408;7.208;2022-09-14T03:17:00;22.60;54.10
4411;DHT22;2218;51.408;7.208;2022-09-14T03:19:29;22.60;54.10
4411;DHT22;2218;51.408;7.208;2022-09-14T03:21:55;22.50;53.90
4411;DHT22;2218;51.408;7.208;2022-09-14T03:24:23;22.60;54.00
4411;DHT22;2218;51.408;7.208;2022-09-14T03:26:49;22.50;53.90
4411;DHT22;2218;51.408;7.208;2022-09-14T03:29:16;22.60;54.00
4411;DHT22;2218;51.408;7.208;2022-09-14T03:31:43;22.50;53.90
4411;DHT22;2218;51.408;7.208;2022-09-14T03:34:10;22.50;53.90
4411;DHT22;2218;51.408;7.208;2022-09-14T03:36:38;22.50;53.90
4411;DHT22;2218;51.408;7.208;2022-09-14T03:39:05;22.50;53.90
4411;DHT22;2218;51.408;7.208;2022-09-14T03:41:33;22.60;54.00
4411;DHT22;2218;51.408;7.208;2022-09-14T03:44:00;22.50;53.90
4411;DHT22;2218;51.408;7.208;2022-09-14T03:46:28;22.50;53.90
4411;DHT22;2218;51.408;7.208;2022-09-14T03:48:55;22.50;53.90
4411;DHT22;2218;51.408;7.208;2022-09-14T03:51:22;22.50;53.90
4411;DHT22;2218;51.408;7.208;2022-09-14T03:53:51;22.50;53.90
4411;DHT22;2218;51.408;7.208;2022-09-14T03:56:20;22.50;53.90
4411;DHT22;2218;51.408;7.208;2022-09-14T03:58:49;22.50;53.90
4411;DHT22;2218;51.408;7.208;2022-09-14T04:01:18;22.50;53.90
4411;DHT22;2218;51.408;7.208;2022-09-14T04:03:48;22.50;53.80
4411;DHT22;2218;51.408;7.208;2022-09-14T04:06:17;22.50;53.80
4411;DHT22;2218;51.408;7.208;2022-09-14T04:08:45;22.50;53.70
4411;DHT22;2218;51.408;7.208;2022-09-14T04:11:15;22.50;53.70
4411;DHT22;2218;51.408;7.208;2022-09-14T04:13:44;22.50;53.60
4411;DHT22;2218;51.408;7.208;2022-09-14T04:16:12;22.50;54.10
4411;DHT22;2218;51.408;7.208;2022-09-14T04:18:39;22.50;53.60
4411;DHT22;2218;51.408;7.208;2022-09-14T04:21:08;22.50;53.60
4411;DHT22;2218;51.408;7.208;2022-09-14T04:23:38;22.50;53.50
4411;DHT22;2218;51.408;7.208;2022-09-14T04:26:09;22.50;53.50
4411;DHT22;2218;51.408;7.208;2022-09-14T04:28:39;22.50;53.50
4411;DHT22;2218;51.408;7.208;2022-09-14T04:31:07;22.50;53.50
4411;DHT22;2218;51.408;7.208;2022-09-14T04:33:36;22.50;53.50
4411;DHT22;2218;51.408;7.208;2022-09-14T04:36:07;22.50;53.50
4411;DHT22;2218;51.408;7.208;2022-09-14T04:38:36;22.50;53.40
4411;DHT22;2218;51.408;7.208;2022-09-14T04:41:06;22.50;53.40
4411;DHT22;2218;51.408;7.208;2022-09-14T04:43:34;22.50;53.40
4411;DHT22;2218;51.408;7.208;2022-09-14T04:46:03;22.50;53.40
4411;DHT22;2218;51.408;7.208;2022-09-14T04:48:32;22.50;53.40
4411;DHT22;2218;51.408;7.208;2022-09-14T04:51:01;22.50;53.40
4411;DHT22;2218;51.408;7.208;2022-09-14T04:53:28;22.50;53.50
4411;DHT22;2218;51.408;7.208;2022-09-14T04:55:58;22.50;53.50
4411;DHT22;2218;51.408;7.208;2022-09-14T04:58:26;22.50;53.50
4411;DHT22;2218;51.408;7.208;2022-09-14T05:00:54;22.50;53.50
4411;DHT22;2218;51.408;7.208;2022-09-14T05:03:22;22.50;53.50
4411;DHT22;2218;51.408;7.208;2022-09-14T05:05:49;22.50;53.50
4411;DHT22;2218;51.408;7.208;2022-09-14T05:08:16;22.50;53.50
4411;DHT22;2218;51.408;7.208;2022-09-14T05:10:43;22.50;53.50
4411;DHT22;2218;51.408;7.208;2022-09-14T05:13:09;22.50;53.50
4411;DHT22;2218;51.408;7.208;2022-09-14T05:15:39;22.50;53.50
4411;DHT22;2218;51.408;7.208;2022-09-14T05:18:07;22.50;53.50
4411;DHT22;2218;51.408;7.208;2022-09-14T05:20:36;22.50;53.50
4411;DHT22;2218;51.408;7.208;2022-09-14T05:23:03;22.40;53.40
4411;DHT22;2218;51.408;7.208;2022-09-14T05:25:30;22.50;53.50
4411;DHT22;2218;51.408;7.208;2022-09-14T05:27:57;22.50;53.50
4411;DHT22;2218;51.408;7.208;2022-09-14T05:30:24;22.50;53.50
4411;DHT22;2218;51.408;7.208;2022-09-14T05:32:52;22.50;53.50
4411;DHT22;2218;51.408;7.208;2022-09-14T05:35:19;22.40;53.40
4411;DHT22;2218;51.408;7.208;2022-09-14T05:37:47;22.50;53.50
4411;DHT22;2218;51.408;7.208;2022-09-14T05:40:14;22.40;53.40
4411;DHT22;2218;51.408;7.208;2022-09-14T05:42:41;22.40;53.40
4411;DHT22;2218;51.408;7.208;2022-09-14T05:45:08;22.50;53.50
4411;DHT22;2218;51.408;7.208;2022-09-14T05:47:35;22.50;53.60
4411;DHT22;2218;51.408;7.208;2022-09-14T05:50:03;22.50;53.60
4411;DHT22;2218;51.408;7.208;2022-09-14T05:52:30;22.50;53.60
4411;DHT22;2218;51.408;7.208;2022-09-14T05:54:58;22.40;53.50
4411;DHT22;2218;51.408;7.208;2022-09-14T05:57:25;22.40;53.50
4411;DHT22;2218;51.408;7.208;2022-09-14T05:59:52;22.40;53.50
4411;DHT22;2218;51.408;7.208;2022-09-14T06:02:19;22.50;53.60
4411;DHT22;2218;51.408;7.208;2022-09-14T06:04:46;22.50;53.60
4411;DHT22;2218;51.408;7.208;2022-09-14T06:07:13;22.40;54.10
4411;DHT22;2218;51.408;7.208;2022-09-14T06:09:39;22.40;53.50
4411;DHT22;2218;51.408;7.208;2022-09-14T06:12:08;22.40;53.50
4411;DHT22;2218;51.408;7.208;2022-09-14T06:14:35;22.40;53.50
4411;DHT22;2218;51.408;7.208;2022-09-14T06:17:02;22.40;53.60
4411;DHT22;2218;51.408;7.208;2022-09-14T06:19:30;22.40;53.50
4411;DHT22;2218;51.408;7.208;2022-09-14T06:21:57;22.40;53.90
4411;DHT22;2218;51.408;7.208;2022-09-14T06:24:24;22.50;54.00
4411;DHT22;2218;51.408;7.208;2022-09-14T06:26:50;22.50;54.00
4411;DHT22;2218;51.408;7.208;2022-09-14T06:29:19;22.50;53.90
4411;DHT22;2218;51.408;7.208;2022-09-14T06:31:45;22.60;54.00
4411;DHT22;2218;51.408;7.208;2022-09-14T06:34:12;22.60;54.00
4411;DHT22;2218;51.408;7.208;2022-09-14T06:36:39;22.60;53.90
4411;DHT22;2218;51.408;7.208;2022-09-14T06:39:06;22.60;53.70
4411;DHT22;2218;51.408;7.208;2022-09-14T06:41:34;22.60;53.60
4411;DHT22;2218;51.408;7.208;2022-09-14T06:44:01;22.70;53.50
4411;DHT22;2218;51.408;7.208;2022-09-14T06:46:31;22.70;53.60
4411;DHT22;2218;51.408;7.208;2022-09-14T06:49:01;22.70;53.50
4411;DHT22;2218;51.408;7.208;2022-09-14T06:51:33;22.70;53.50
4411;DHT22;2218;51.408;7.208;2022-09-14T06:54:02;22.70;53.40
4411;DHT22;2218;51.408;7.208;2022-09-14T06:56:31;22.70;53.40
4411;DHT22;2218;51.408;7.208;2022-09-14T06:58:59;22.80;53.40
4411;DHT22;2218;51.408;7.208;2022-09-14T07:01:26;22.80;53.40
4411;DHT22;2218;51.408;7.208;2022-09-14T07:03:56;22.80;53.30
4411;DHT22;2218;51.408;7.208;2022-09-14T07:06:26;22.80;53.30
4411;DHT22;2218;51.408;7.208;2022-09-14T07:08:54;22.80;53.30
4411;DHT22;2218;51.408;7.208;2022-09-14T07:11:23;22.80;53.30
4411;DHT22;2218;51.408;7.208;2022-09-14T07:13:52;22.80;53.80
4411;DHT22;2218;51.408;7.208;2022-09-14T07:16:21;22.80;53.30
4411;DHT22;2218;51.408;7.208;2022-09-14T07:18:51;22.80;53.40
4411;DHT22;2218;51.408;7.208;2022-09-14T07:21:20;22.80;53.30
4411;DHT22;2218;51.408;7.208;2022-09-14T07:23:48;22.80;53.40
4411;DHT22;2218;51.408;7.208;2022-09-14T07:26:17;22.80;53.40
4411;DHT22;2218;51.408;7.208;2022-09-14T07:28:47;22.80;53.40
4411;DHT22;2218;51.408;7.208;2022-09-14T07:31:16;22.80;53.40
4411;DHT22;2218;51.408;7.208;2022-09-14T07:33:46;22.80;53.40
4411;DHT22;2218;51.408;7.208;2022-09-14T07:36:13;22.80;53.40
4411;DHT22;2218;51.408;7.208;2022-09-14T07:38:42;22.80;53.40
4411;DHT22;2218;51.408;7.208;2022-09-14T07:41:09;22.80;53.40
4411;DHT22;2218;51.408;7.208;2022-09-14T07:43:35;22.80;53.30
4411;DHT22;2218;51.408;7.208;2022-09-14T07:46:03;22.80;53.40
4411;DHT22;2218;51.408;7.208;2022-09-14T07:48:32;22.80;53.40
4411;DHT22;2218;51.408;7.208;2022-09-14T07:51:01;22.80;53.40
4411;DHT22;2218;51.408;7.208;2022-09-14T07:53:29;22.80;53.40
4411;DHT22;2218;51.408;7.208;2022-09-14T07:55:59;22.80;53.90
4411;DHT22;2218;51.408;7.208;2022-09-14T07:58:27;22.80;53.30
4411;DHT22;2218;51.408;7.208;2022-09-14T08:00:58;22.80;53.30
4411;DHT22;2218;51.408;7.208;2022-09-14T08:03:25;22.80;53.30
4411;DHT22;2218;51.408;7.208;2022-09-14T08:05:59;22.80;53.30
4411;DHT22;2218;51.408;7.208;2022-09-14T08:08:28;22.80;53.30
4411;DHT22;2218;51.408;7.208;2022-09-14T08:11:03;22.80;53.30
4411;DHT22;2218;51.408;7.208;2022-09-14T08:13:32;22.80;53.30
4411;DHT22;2218;51.408;7.208;2022-09-14T08:15:59;22.80;53.30
4411;DHT22;2218;51.408;7.208;2022-09-14T08:18:27;22.80;53.30
4411;DHT22;2218;51.408;7.208;2022-09-14T08:20:55;22.80;53.30
4411;DHT22;2218;51.408;7.208;2022-09-14T08:23:22;22.80;53.30
4411;DHT22;2218;51.408;7.208;2022-09-14T08:25:49;22.80;53.40
4411;DHT22;2218;51.408;7.208;2022-09-14T08:28:19;22.80;53.30
4411;DHT22;2218;51.408;7.208;2022-09-14T08:30:45;22.80;53.30
4411;DHT22;2218;51.408;7.208;2022-09-14T08:33:12;22.80;53.30
4411;DHT22;2218;51.408;7.208;2022-09-14T08:35:43;22.80;53.30
4411;DHT22;2218;51.408;7.208;2022-09-14T08:38:10;22.80;53.30
4411;DHT22;2218;51.408;7.208;2022-09-14T08:40:42;22.80;53.30
4411;DHT22;2218;51.408;7.208;2022-09-14T08:43:11;22.80;53.30
4411;DHT22;2218;51.408;7.208;2022-09-14T08:45:41;22.80;53.30
4411;DHT22;2218;51.408;7.208;2022-09-14T08:48:16;22.80;53.30
4411;DHT22;2218;51.408;7.208;2022-09-14T08:50:49;22.80;53.30
4411;DHT22;2218;51.408;7.208;2022-09-14T08:53:19;22.80;53.30
4411;DHT22;2218;51.408;7.208;2022-09-14T08:55:49;22.80;53.30
4411;DHT22;2218;51.408;7.208;2022-09-14T08:58:31;22.80;53.30
4411;DHT22;2218;51.408;7.208;2022-09-14T09:01:19;22.80;53.30
4411;DHT22;2218;51.408;7.208;2022-09-14T09:04:18;22.80;53.40
4411;DHT22;2218;51.408;7.208;2022-09-14T09:06:56;22.80;53.30
4411;DHT22;2218;51.408;7.208;2022-09-14T09:09:37;22.80;53.40
4411;DHT22;2218;51.408;7.208;2022-09-14T09:12:12;22.80;53.30
4411;DHT22;2218;51.408;7.208;2022-09-14T09:14:46;22.80;53.30
4411;DHT22;2218;51.408;7.208;2022-09-14T09:17:20;22.80;53.30
4411;DHT22;2218;51.408;7.208;2022-09-14T09:19:56;22.80;53.30
4411;DHT22;2218;51.408;7.208;2022-09-14T09:22:31;22.80;53.30
4411;DHT22;2218;51.408;7.208;2022-09-14T09:25:06;22.80;53.30
4411;DHT22;2218;51.408;7.208;2022-09-14T09:27:41;22.80;53.30
4411;DHT22;2218;51.408;7.208;2022-09-14T09:30:11;22.80;53.30
4411;DHT22;2218;51.408;7.208;2022-09-14T09:32:41;22.80;53.30
4411;DHT22;2218;51.408;7.208;2022-09-14T09:35:23;22.80;53.30
4411;DHT22;2218;51.408;7.208;2022-09-14T09:37:59;22.80;53.30
4411;DHT22;2218;51.408;7.208;2022-09-14T09:40:30;22.80;53.30
4411;DHT22;2218;51.408;7.208;2022-09-14T09:43:09;22.80;53.30
4411;DHT22;2218;51.408;7.208;2022-09-14T09:45:49;22.70;53.30
4411;DHT22;2218;51.408;7.208;2022-09-14T09:48:26;22.80;53.30
4411;DHT22;2218;51.408;7.208;2022-09-14T09:51:06;22.80;53.30
4411;DHT22;2218;51.408;7.208;2022-09-14T09:53:44;22.80;53.30
4411;DHT22;2218;51.408;7.208;2022-09-14T09:56:17;22.80;53.30
4411;DHT22;2218;51.408;7.208;2022-09-14T09:58:48;22.80;53.30
4411;DHT22;2218;51.408;7.208;2022-09-14T10:01:21;22.80;53.30
4411;DHT22;2218;51.408;7.208;2022-09-14T10:04:04;22.80;53.30
4411;DHT22;2218;51.408;7.208;2022-09-14T10:06:42;22.80;53.30
4411;DHT22;2218;51.408;7.208;2022-09-14T10:09:12;22.80;53.30
4411;DHT22;2218;51.408;7.208;2022-09-14T10:11:41;22.80;53.30
4411;DHT22;2218;51.408;7.208;2022-09-14T10:14:24;22.80;53.30
4411;DHT22;2218;51.408;7.208;2022-09-14T10:17:05;22.80;53.30
4411;DHT22;2218;51.408;7.208;2022-09-14T10:19:46;22.80;53.30
4411;DHT22;2218;51.408;7.208;2022-09-14T10:22:24;22.70;53.30
4411;DHT22;2218;51.408;7.208;2022-09-14T10:24:55;22.80;53.30
4411;DHT22;2218;51.408;7.208;2022-09-14T10:27:39;22.80;53.30
4411;DHT22;2218;51.408;7.208;2022-09-14T10:30:15;22.80;52.90
4411;DHT22;2218;51.408;7.208;2022-09-14T10:32:48;22.80;52.80
4411;DHT22;2218;51.408;7.208;2022-09-14T10:35:24;22.80;52.70
4411;DHT22;2218;51.408;7.208;2022-09-14T10:38:09;22.80;52.80
4411;DHT22;2218;51.408;7.208;2022-09-14T10:40:56;22.80;52.70
4411;DHT22;2218;51.408;7.208;2022-09-14T10:43:42;22.90;52.70
4411;DHT22;2218;51.408;7.208;2022-09-14T10:46:28;22.90;52.60
4411;DHT22;2218;51.408;7.208;2022-09-14T10:49:17;22.90;52.60
4411;DHT22;2218;51.408;7.208;2022-09-14T10:52:04;22.90;52.50
4411;DHT22;2218;51.408;7.208;2022-09-14T10:54:56;22.90;52.50
4411;DHT22;2218;51.408;7.208;2022-09-14T10:57:38;22.90;52.40
4411;DHT22;2218;51.408;7.208;2022-09-14T11:00:13;22.90;52.40
4411;DHT22;2218;51.408;7.208;2022-09-14T11:05:55;23.00;52.40
4411;DHT22;2218;51.408;7.208;2022-09-14T11:08:35;23.00;52.30
4411;DHT22;2218;51.408;7.208;2022-09-14T11:11:22;23.00;52.30
4411;DHT22;2218;51.408;7.208;2022-09-14T11:14:06;23.00;52.30
4411;DHT22;2218;51.408;7.208;2022-09-14T11:16:58;23.00;52.20
4411;DHT22;2218;51.408;7.208;2022-09-14T11:19:40;23.00;52.20
4411;DHT22;2218;51.408;7.208;2022-09-14T11:22:20;23.00;52.30
4411;DHT22;2218;51.408;7.208;2022-09-14T11:25:01;23.00;52.30
4411;DHT22;2218;51.408;7.208;2022-09-14T11:27:33;23.00;52.20
4411;DHT22;2218;51.408;7.208;2022-09-14T11:30:13;23.00;52.20
4411;DHT22;2218;51.408;7.208;2022-09-14T11:32:46;23.00;52.20
4411;DHT22;2218;51.408;7.208;2022-09-14T11:35:19;23.00;52.20
4411;DHT22;2218;51.408;7.208;2022-09-14T11:37:54;23.00;52.10
4411;DHT22;2218;51.408;7.208;2022-09-14T11:40:29;23.00;52.10
4411;DHT22;2218;51.408;7.208;2022-09-14T11:43:03;23.00;52.10
4411;DHT22;2218;51.408;7.208;2022-09-14T11:45:42;23.00;52.00
4411;DHT22;2218;51.408;7.208;2022-09-14T11:48:19;23.10;52.00
4411;DHT22;2218;51.408;7.208;2022-09-14T11:50:53;23.10;52.00
4411;DHT22;2218;51.408;7.208;2022-09-14T11:53:27;23.10;52.00
4411;DHT22;2218;51.408;7.208;2022-09-14T11:55:58;23.10;51.90
4411;DHT22;2218;51.408;7.208;2022-09-14T11:58:27;23.10;51.90
4411;DHT22;2218;51.408;7.208;2022-09-14T12:01:24;23.10;51.90
4411;DHT22;2218;51.408;7.208;2022-09-14T12:04:08;23.10;51.90
4411;DHT22;2218;51.408;7.208;2022-09-14T12:06:58;23.10;51.80
4411;DHT22;2218;51.408;7.208;2022-09-14T12:09:43;23.10;51.70
4411;DHT22;2218;51.408;7.208;2022-09-14T12:12:30;23.10;51.70
4411;DHT22;2218;51.408;7.208;2022-09-14T12:15:17;23.10;51.80
4411;DHT22;2218;51.408;7.208;2022-09-14T12:17:49;23.10;51.80
4411;DHT22;2218;51.408;7.208;2022-09-14T12:20:35;23.10;51.90
4411;DHT22;2218;51.408;7.208;2022-09-14T12:23:25;23.10;51.80
4411;DHT22;2218;51.408;7.208;2022-09-14T12:26:23;23.10;51.90
4411;DHT22;2218;51.408;7.208;2022-09-14T12:29:03;23.10;51.90
4411;DHT22;2218;51.408;7.208;2022-09-14T12:32:25;23.10;52.00
4411;DHT22;2218;51.408;7.208;2022-09-14T12:35:42;23.10;51.90
4411;DHT22;2218;51.408;7.208;2022-09-14T12:38:38;23.10;51.90
4411;DHT22;2218;51.408;7.208;2022-09-14T12:51:37;23.10;51.70
4411;DHT22;2218;51.408;7.208;2022-09-14T12:54:21;23.10;51.70
4411;DHT22;2218;51.408;7.208;2022-09-14T12:57:03;23.10;51.70
4411;DHT22;2218;51.408;7.208;2022-09-14T12:59:46;23.20;51.80
4411;DHT22;2218;51.408;7.208;2022-09-14T13:05:42;23.20;51.80
4411;DHT22;2218;51.408;7.208;2022-09-14T13:08:11;23.20;51.80
4411;DHT22;2218;51.408;7.208;2022-09-14T13:10:46;23.20;51.80
4411;DHT22;2218;51.408;7.208;2022-09-14T13:13:17;23.20;51.70
4411;DHT22;2218;51.408;7.208;2022-09-14T13:15:51;23.20;51.80
4411;DHT22;2218;51.408;7.208;2022-09-14T13:18:30;23.20;51.70
4411;DHT22;2218;51.408;7.208;2022-09-14T13:21:01;23.20;51.80
4411;DHT22;2218;51.408;7.208;2022-09-14T13:23:34;23.20;51.90
4411;DHT22;2218;51.408;7.208;2022-09-14T13:26:09;23.10;52.00
4411;DHT22;2218;51.408;7.208;2022-09-14T13:28:37;23.10;52.10
4411;DHT22;2218;51.408;7.208;2022-09-14T13:31:11;23.10;52.20
4411;DHT22;2218;51.408;7.208;2022-09-14T13:33:46;23.10;52.20
4411;DHT22;2218;51.408;7.208;2022-09-14T13:36:17;23.10;52.30
4411;DHT22;2218;51.408;7.208;2022-09-14T13:38:47;23.10;52.80
4411;DHT22;2218;51.408;7.208;2022-09-14T13:41:17;23.10;52.50
4411;DHT22;2218;51.408;7.208;2022-09-14T13:43:48;23.10;52.50
4411;DHT22;2218;51.408;7.208;2022-09-14T13:46:20;23.10;52.60
4411;DHT22;2218;51.408;7.208;2022-09-14T13:48:50;23.00;52.40
4411;DHT22;2218;51.408;7.208;2022-09-14T13:51:22;23.10;52.60
4411;DHT22;2218;51.408;7.208;2022-09-14T13:53:52;23.00;52.40
4411;DHT22;2218;51.408;7.208;2022-09-14T13:56:26;23.00;52.60
4411;DHT22;2218;51.408;7.208;2022-09-14T13:59:18;23.00;52.50
4411;DHT22;2218;51.408;7.208;2022-09-14T14:01:53;23.00;52.50
4411;DHT22;2218;51.408;7.208;2022-09-14T14:04:28;23.00;52.30
4411;DHT22;2218;51.408;7.208;2022-09-14T14:07:14;23.00;52.50
4411;DHT22;2218;51.408;7.208;2022-09-14T14:09:46;23.00;52.50
4411;DHT22;2218;51.408;7.208;2022-09-14T14:12:25;23.00;52.60
4411;DHT22;2218;51.408;7.208;2022-09-14T14:14:56;23.00;52.50
4411;DHT22;2218;51.408;7.208;2022-09-14T14:17:31;23.00;52.40
4411;DHT22;2218;51.408;7.208;2022-09-14T14:20:35;23.00;52.40
4411;DHT22;2218;51.408;7.208;2022-09-14T14:23:17;23.00;52.50
4411;DHT22;2218;51.408;7.208;2022-09-14T14:25:48;23.00;52.50
4411;DHT22;2218;51.408;7.208;2022-09-14T14:28:23;23.00;52.40
4411;DHT22;2218;51.408;7.208;2022-09-14T14:30:52;23.00;52.40
4411;DHT22;2218;51.408;7.208;2022-09-14T14:33:20;23.00;52.40
4411;DHT22;2218;51.408;7.208;2022-09-14T14:35:50;23.00;52.40
4411;DHT22;2218;51.408;7.208;2022-09-14T14:38:18;23.00;52.40
4411;DHT22;2218;51.408;7.208;2022-09-14T14:40:47;23.00;52.30
4411;DHT22;2218;51.408;7.208;2022-09-14T14:43:17;23.00;52.30
4411;DHT22;2218;51.408;7.208;2022-09-14T14:45:46;23.00;52.30
4411;DHT22;2218;51.408;7.208;2022-09-14T14:48:13;23.00;52.40
4411;DHT22;2218;51.408;7.208;2022-09-14T14:50:42;22.90;52.40
4411;DHT22;2218;51.408;7.208;2022-09-14T14:53:12;22.90;52.50
4411;DHT22;2218;51.408;7.208;2022-09-14T14:55:39;22.90;52.50
4411;DHT22;2218;51.408;7.208;2022-09-14T14:58:10;22.90;52.60
4411;DHT22;2218;51.408;7.208;2022-09-14T15:00:41;22.90;52.70
4411;DHT22;2218;51.408;7.208;2022-09-14T15:03:08;22.90;52.70
4411;DHT22;2218;51.408;7.208;2022-09-14T15:05:38;22.80;52.60
4411;DHT22;2218;51.408;7.208;2022-09-14T15:08:07;22.90;52.70
4411;DHT22;2218;51.408;7.208;2022-09-14T15:10:36;22.90;52.70
4411;DHT22;2218;51.408;7.208;2022-09-14T15:13:04;22.80;52.70
4411;DHT22;2218;51.408;7.208;2022-09-14T15:15:31;22.80;52.80
4411;DHT22;2218;51.408;7.208;2022-09-14T15:17:58;22.80;52.80
4411;DHT22;2218;51.408;7.208;2022-09-14T15:20:26;22.80;52.80
4411;DHT22;2218;51.408;7.208;2022-09-14T15:22:53;22.80;52.90
4411;DHT22;2218;51.408;7.208;2022-09-14T15:25:20;22.80;52.90
4411;DHT22;2218;51.408;7.208;2022-09-14T15:27:48;22.80;52.90
4411;DHT22;2218;51.408;7.208;2022-09-14T15:30:15;22.70;52.90
4411;DHT22;2218;51.408;7.208;2022-09-14T15:32:42;22.80;53.00
4411;DHT22;2218;51.408;7.208;2022-09-14T15:35:12;22.70;53.50
4411;DHT22;2218;51.408;7.208;2022-09-14T15:37:40;22.70;53.00
4411;DHT22;2218;51.408;7.208;2022-09-14T15:40:08;22.70;53.00
4411;DHT22;2218;51.408;7.208;2022-09-14T15:42:36;22.70;53.10
4411;DHT22;2218;51.408;7.208;2022-09-14T15:45:05;22.70;53.10
4411;DHT22;2218;51.408;7.208;2022-09-14T15:47:33;22.70;53.10
4411;DHT22;2218;51.408;7.208;2022-09-14T15:50:00;22.70;53.10
4411;DHT22;2218;51.408;7.208;2022-09-14T15:52:27;22.70;53.20
4411;DHT22;2218;51.408;7.208;2022-09-14T15:54:54;22.60;53.10
4411;DHT22;2218;51.408;7.208;2022-09-14T15:57:22;22.60;53.10
4411;DHT22;2218;51.408;7.208;2022-09-14T15:59:49;22.70;53.20
4411;DHT22;2218;51.408;7.208;2022-09-14T16:02:20;22.60;53.10
4411;DHT22;2218;51.408;7.208;2022-09-14T16:04:46;22.60;53.20
4411;DHT22;2218;51.408;7.208;2022-09-14T16:07:13;22.60;53.20
4411;DHT22;2218;51.408;7.208;2022-09-14T16:09:41;22.60;53.20
4411;DHT22;2218;51.408;7.208;2022-09-14T16:12:10;22.60;53.30
4411;DHT22;2218;51.408;7.208;2022-09-14T16:14:38;22.60;53.30
4411;DHT22;2218;51.408;7.208;2022-09-14T16:17:06;22.60;53.30
4411;DHT22;2218;51.408;7.208;2022-09-14T16:19:34;22.60;53.30
4411;DHT22;2218;51.408;7.208;2022-09-14T16:22:02;22.60;53.40
4411;DHT22;2218;51.408;7.208;2022-09-14T16:24:30;22.60;53.40
4411;DHT22;2218;51.408;7.208;2022-09-14T16:26:58;22.60;53.40
4411;DHT22;2218;51.408;7.208;2022-09-14T16:29:25;22.50;53.40
4411;DHT22;2218;51.408;7.208;2022-09-14T16:31:52;22.50;53.40
4411;DHT22;2218;51.408;7.208;2022-09-14T16:34:21;22.50;53.40
4411;DHT22;2218;51.408;7.208;2022-09-14T16:36:51;22.50;53.40
4411;DHT22;2218;51.408;7.208;2022-09-14T16:39:21;22.50;53.40
4411;DHT22;2218;51.408;7.208;2022-09-14T16:41:50;22.50;53.40
4411;DHT22;2218;51.408;7.208;2022-09-14T16:44:20;22.50;53.40
4411;DHT22;2218;51.408;7.208;2022-09-14T16:46:49;22.50;53.50
4411;DHT22;2218;51.408;7.208;2022-09-14T16:49:17;22.50;53.50
4411;DHT22;2218;51.408;7.208;2022-09-14T16:51:44;22.50;53.50